sensor_id;sensor_type;location;lat;lon;timestamp;temperature;humidity
14022;DHT22;7086;48.116;11.580;2023-03-03T00:13:36;3.30;82.20
14022;DHT22;7086;48.116;11.580;2023-03-03T00:16:14;3.30;81.60
14022;DHT22;7086;48.116;11.580;2023-03-03T00:19:02;3.30;82.10
14022;DHT22;7086;48.116;11.580;2023-03-03T00:21:53;3.30;82.30
14022;DHT22;7086;48.116;11.580;2023-03-03T00:24:52;3.30;82.40
14022;DHT22;7086;48.116;11.580;2023-03-03T01:00:47;3.10;84.00
14022;DHT22;7086;48.116;11.580;2023-03-03T01:03:27;3.10;84.20
14022;DHT22;7086;48.116;11.580;2023-03-03T01:06:17;3.10;84.20
14022;DHT22;7086;48.116;11.580;2023-03-03T01:32:50;3.00;84.60
14022;DHT22;7086;48.116;11.580;2023-03-03T01:36:29;3.00;85.00
14022;DHT22;7086;48.116;11.580;2023-03-03T01:39:45;3.00;84.60
14022;DHT22;7086;48.116;11.580;2023-03-03T01:42:35;3.00;84.30
14022;DHT22;7086;48.116;11.580;2023-03-03T03:27:49;3.40;87.10
14022;DHT22;7086;48.116;11.580;2023-03-03T03:32:54;1.60;88.50
14022;DHT22;7086;48.116;11.580;2023-03-03T04:11:50;4.10;85.10
14022;DHT22;7086;48.116;11.580;2023-03-03T04:42:05;4.40;83.90
14022;DHT22;7086;48.116;11.580;2023-03-03T05:00:51;4.60;83.50
14022;DHT22;7086;48.116;11.580;2023-03-03T05:42:09;4.80;84.70
14022;DHT22;7086;48.116;11.580;2023-03-03T05:45:18;4.90;85.80
14022;DHT22;7086;48.116;11.580;2023-03-03T05:50:53;5.20;85.90
14022;DHT22;7086;48.116;11.580;2023-03-03T05:53:36;5.30;84.90
14022;DHT22;7086;48.116;11.580;2023-03-03T05:56:18;5.40;84.00
14022;DHT22;7086;48.116;11.580;2023-03-03T05:58:59;5.40;85.00
14022;DHT22;7086;48.116;11.580;2023-03-03T06:01:35;5.10;82.30
14022;DHT22;7086;48.116;11.580;2023-03-03T06:04:12;5.50;82.90
14022;DHT22;7086;48.116;11.580;2023-03-03T06:07:19;5.50;82.70
14022;DHT22;7086;48.116;11.580;2023-03-03T06:10:02;5.40;82.70
14022;DHT22;7086;48.116;11.580;2023-03-03T06:12:58;5.40;83.70
14022;DHT22;7086;48.116;11.580;2023-03-03T06:15:37;5.40;83.00
14022;DHT22;7086;48.116;11.580;2023-03-03T06:18:14;5.40;82.80
14022;DHT22;7086;48.116;11.580;2023-03-03T06:20:55;5.40;82.90
14022;DHT22;7086;48.116;11.580;2023-03-03T06:23:46;5.40;83.20
14022;DHT22;7086;48.116;11.580;2023-03-03T06:26:32;5.40;83.00
14022;DHT22;7086;48.116;11.580;2023-03-03T06:29:09;5.40;82.70
14022;DHT22;7086;48.116;11.580;2023-03-03T06:31:45;5.40;83.10
14022;DHT22;7086;48.116;11.580;2023-03-03T06:34:22;7.60;82.90
14022;DHT22;7086;48.116;11.580;2023-03-03T06:36:57;5.40;82.90
14022;DHT22;7086;48.116;11.580;2023-03-03T06:39:30;5.40;82.10
14022;DHT22;7086;48.116;11.580;2023-03-03T06:42:32;5.40;81.80
14022;DHT22;7086;48.116;11.580;2023-03-03T06:45:19;5.40;82.70
14022;DHT22;7086;48.116;11.580;2023-03-03T06:48:07;5.50;82.60
14022;DHT22;7086;48.116;11.580;2023-03-03T06:50:44;5.50;83.10
14022;DHT22;7086;48.116;11.580;2023-03-03T06:53:26;5.50;82.80
14022;DHT22;7086;48.116;11.580;2023-03-03T06:55:57;5.50;81.90
14022;DHT22;7086;48.116;11.580;2023-03-03T06:58:35;5.50;82.70
14022;DHT22;7086;48.116;11.580;2023-03-03T07:01:14;5.50;82.60
14022;DHT22;7086;48.116;11.580;2023-03-03T07:04:09;5.50;82.50
14022;DHT22;7086;48.116;11.580;2023-03-03T07:06:56;5.50;82.20
14022;DHT22;7086;48.116;11.580;2023-03-03T07:09:33;5.50;82.40
14022;DHT22;7086;48.116;11.580;2023-03-03T07:12:10;5.60;82.30
14022;DHT22;7086;48.116;11.580;2023-03-03T07:15:14;5.60;82.20
14022;DHT22;7086;48.116;11.580;2023-03-03T07:17:56;6.20;82.60
14022;DHT22;7086;48.116;11.580;2023-03-03T07:20:53;5.60;82.10
14022;DHT22;7086;48.116;11.580;2023-03-03T07:23:25;5.60;82.30
14022;DHT22;7086;48.116;11.580;2023-03-03T07:26:15;5.60;82.40
14022;DHT22;7086;48.116;11.580;2023-03-03T07:31:57;5.70;81.90
14022;DHT22;7086;48.116;11.580;2023-03-03T07:34:36;5.80;81.80
14022;DHT22;7086;48.116;11.580;2023-03-03T07:37:45;5.80;81.70
14022;DHT22;7086;48.116;11.580;2023-03-03T07:40:32;5.80;81.70
14022;DHT22;7086;48.116;11.580;2023-03-03T07:43:30;5.80;81.50
14022;DHT22;7086;48.116;11.580;2023-03-03T07:46:40;5.70;82.10
14022;DHT22;7086;48.116;11.580;2023-03-03T07:49:30;5.80;81.70
14022;DHT22;7086;48.116;11.580;2023-03-03T07:52:24;5.80;81.60
14022;DHT22;7086;48.116;11.580;2023-03-03T07:58:41;5.80;81.80
14022;DHT22;7086;48.116;11.580;2023-03-03T08:01:37;5.90;81.80
14022;DHT22;7086;48.116;11.580;2023-03-03T08:04:21;6.00;81.90
14022;DHT22;7086;48.116;11.580;2023-03-03T08:07:16;6.00;82.30
14022;DHT22;7086;48.116;11.580;2023-03-03T08:10:37;6.10;81.60
14022;DHT22;7086;48.116;11.580;2023-03-03T08:22:28;6.30;81.20
14022;DHT22;7086;48.116;11.580;2023-03-03T08:25:18;6.90;81.70
14022;DHT22;7086;48.116;11.580;2023-03-03T08:28:14;6.40;81.20
14022;DHT22;7086;48.116;11.580;2023-03-03T08:30:56;6.60;81.50
14022;DHT22;7086;48.116;11.580;2023-03-03T08:33:58;6.60;81.40
14022;DHT22;7086;48.116;11.580;2023-03-03T08:36:34;6.80;81.40
14022;DHT22;7086;48.116;11.580;2023-03-03T08:39:05;6.90;81.30
14022;DHT22;7086;48.116;11.580;2023-03-03T08:41:49;6.80;81.80
14022;DHT22;7086;48.116;11.580;2023-03-03T08:44:30;7.20;81.00
14022;DHT22;7086;48.116;11.580;2023-03-03T08:47:04;7.20;80.90
14022;DHT22;7086;48.116;11.580;2023-03-03T08:53:28;7.60;80.40
14022;DHT22;7086;48.116;11.580;2023-03-03T08:56:03;7.60;80.60
14022;DHT22;7086;48.116;11.580;2023-03-03T08:58:37;7.70;79.90
14022;DHT22;7086;48.116;11.580;2023-03-03T09:01:13;7.80;79.60
14022;DHT22;7086;48.116;11.580;2023-03-03T09:04:04;6.80;78.10
14022;DHT22;7086;48.116;11.580;2023-03-03T09:06:46;7.60;78.50
14022;DHT22;7086;48.116;11.580;2023-03-03T09:09:37;8.10;78.00
14022;DHT22;7086;48.116;11.580;2023-03-03T09:12:15;8.20;77.80
14022;DHT22;7086;48.116;11.580;2023-03-03T09:15:18;8.30;77.40
14022;DHT22;7086;48.116;11.580;2023-03-03T09:18:08;8.40;77.30
14022;DHT22;7086;48.116;11.580;2023-03-03T09:20:46;8.30;76.60
14022;DHT22;7086;48.116;11.580;2023-03-03T09:23:33;8.40;77.30
14022;DHT22;7086;48.116;11.580;2023-03-03T09:33:30;8.60;76.50
14022;DHT22;7086;48.116;11.580;2023-03-03T09:36:23;6.20;74.50
14022;DHT22;7086;48.116;11.580;2023-03-03T09:39:16;8.70;76.90
14022;DHT22;7086;48.116;11.580;2023-03-03T09:46:11;8.90;76.30
14022;DHT22;7086;48.116;11.580;2023-03-03T10:41:42;9.90;72.10
14022;DHT22;7086;48.116;11.580;2023-03-03T10:44:40;9.90;72.40
14022;DHT22;7086;48.116;11.580;2023-03-03T10:47:55;9.90;72.50
14022;DHT22;7086;48.116;11.580;2023-03-03T10:51:21;10.00;72.50
14022;DHT22;7086;48.116;11.580;2023-03-03T10:54:25;10.10;72.60
14022;DHT22;7086;48.116;11.580;2023-03-03T11:14:11;10.60;70.90
14022;DHT22;7086;48.116;11.580;2023-03-03T11:17:08;10.60;70.70
14022;DHT22;7086;48.116;11.580;2023-03-03T11:20:03;10.60;70.30
14022;DHT22;7086;48.116;11.580;2023-03-03T11:22:58;10.60;70.40
14022;DHT22;7086;48.116;11.580;2023-03-03T11:26:09;10.60;70.40
14022;DHT22;7086;48.116;11.580;2023-03-03T12:00:04;11.20;69.40
14022;DHT22;7086;48.116;11.580;2023-03-03T12:03:38;11.30;69.20
14022;DHT22;7086;48.116;11.580;2023-03-03T12:07:02;11.50;69.00
14022;DHT22;7086;48.116;11.580;2023-03-03T12:10:17;11.60;68.10
14022;DHT22;7086;48.116;11.580;2023-03-03T12:13:13;9.10;65.50
14022;DHT22;7086;48.116;11.580;2023-03-03T12:16:23;11.70;67.40
14022;DHT22;7086;48.116;11.580;2023-03-03T12:19:36;11.80;67.30
14022;DHT22;7086;48.116;11.580;2023-03-03T12:22:39;11.80;67.40
14022;DHT22;7086;48.116;11.580;2023-03-03T12:26:00;12.00;66.50
14022;DHT22;7086;48.116;11.580;2023-03-03T12:32:03;12.00;66.00
14022;DHT22;7086;48.116;11.580;2023-03-03T12:34:55;11.90;65.60
14022;DHT22;7086;48.116;11.580;2023-03-03T12:43:52;11.90;65.80
14022;DHT22;7086;48.116;11.580;2023-03-03T12:51:04;11.80;65.90
14022;DHT22;7086;48.116;11.580;2023-03-03T12:53:55;11.80;65.60
14022;DHT22;7086;48.116;11.580;2023-03-03T12:57:37;11.80;65.60
14022;DHT22;7086;48.116;11.580;2023-03-03T13:00:58;11.80;65.90
14022;DHT22;7086;48.116;11.580;2023-03-03T13:04:18;11.80;66.10
14022;DHT22;7086;48.116;11.580;2023-03-03T13:07:22;11.90;66.30
14022;DHT22;7086;48.116;11.580;2023-03-03T13:10:32;11.90;66.10
14022;DHT22;7086;48.116;11.580;2023-03-03T13:17:20;11.90;64.70
14022;DHT22;7086;48.116;11.580;2023-03-03T13:26:51;11.70;64.70
14022;DHT22;7086;48.116;11.580;2023-03-03T13:33:16;11.60;65.40
14022;DHT22;7086;48.116;11.580;2023-03-03T13:36:41;11.60;65.50
14022;DHT22;7086;48.116;11.580;2023-03-03T13:43:16;11.50;65.30
14022;DHT22;7086;48.116;11.580;2023-03-03T13:46:15;11.40;65.40
14022;DHT22;7086;48.116;11.580;2023-03-03T13:49:25;11.40;65.50
14022;DHT22;7086;48.116;11.580;2023-03-03T13:56:26;11.50;65.80
14022;DHT22;7086;48.116;11.580;2023-03-03T14:10:52;11.40;65.50
14022;DHT22;7086;48.116;11.580;2023-03-03T14:14:09;11.40;65.70
14022;DHT22;7086;48.116;11.580;2023-03-03T14:17:48;11.40;65.80
14022;DHT22;7086;48.116;11.580;2023-03-03T14:21:15;11.50;65.30
14022;DHT22;7086;48.116;11.580;2023-03-03T14:24:06;11.40;64.60
14022;DHT22;7086;48.116;11.580;2023-03-03T14:30:42;11.40;64.90
14022;DHT22;7086;48.116;11.580;2023-03-03T14:33:37;11.30;65.00
14022;DHT22;7086;48.116;11.580;2023-03-03T14:36:31;11.30;65.00
14022;DHT22;7086;48.116;11.580;2023-03-03T14:39:33;11.20;64.80
14022;DHT22;7086;48.116;11.580;2023-03-03T14:42:14;11.20;65.20
14022;DHT22;7086;48.116;11.580;2023-03-03T14:45:32;11.10;65.10
14022;DHT22;7086;48.116;11.580;2023-03-03T14:48:20;11.10;65.30
14022;DHT22;7086;48.116;11.580;2023-03-03T14:51:41;11.10;65.50
14022;DHT22;7086;48.116;11.580;2023-03-03T14:54:37;11.10;65.70
14022;DHT22;7086;48.116;11.580;2023-03-03T14:57:41;11.00;65.50
14022;DHT22;7086;48.116;11.580;2023-03-03T15:07:47;11.00;65.30
14022;DHT22;7086;48.116;11.580;2023-03-03T15:11:00;10.90;65.20
14022;DHT22;7086;48.116;11.580;2023-03-03T15:14:32;10.90;65.60
14022;DHT22;7086;48.116;11.580;2023-03-03T15:17:55;10.80;65.10
14022;DHT22;7086;48.116;11.580;2023-03-03T15:20:40;10.80;65.40
14022;DHT22;7086;48.116;11.580;2023-03-03T15:23:35;10.80;65.30
14022;DHT22;7086;48.116;11.580;2023-03-03T15:26:39;12.50;66.80
14022;DHT22;7086;48.116;11.580;2023-03-03T15:29:39;10.80;65.90
14022;DHT22;7086;48.116;11.580;2023-03-03T15:32:57;10.80;65.90
14022;DHT22;7086;48.116;11.580;2023-03-03T15:36:22;10.80;66.10
14022;DHT22;7086;48.116;11.580;2023-03-03T15:39:39;10.90;65.50
14022;DHT22;7086;48.116;11.580;2023-03-03T15:42:32;10.90;65.80
14022;DHT22;7086;48.116;11.580;2023-03-03T15:46:25;10.90;65.90
14022;DHT22;7086;48.116;11.580;2023-03-03T15:53:20;10.90;65.70
14022;DHT22;7086;48.116;11.580;2023-03-03T16:03:44;11.00;65.50
14022;DHT22;7086;48.116;11.580;2023-03-03T16:06:52;10.90;65.40
14022;DHT22;7086;48.116;11.580;2023-03-03T16:12:28;10.90;65.40
14022;DHT22;7086;48.116;11.580;2023-03-03T16:18:16;10.80;65.30
14022;DHT22;7086;48.116;11.580;2023-03-03T16:21:17;10.70;65.30
14022;DHT22;7086;48.116;11.580;2023-03-03T16:23:57;7.50;63.40
14022;DHT22;7086;48.116;11.580;2023-03-03T16:26:49;10.60;65.40
14022;DHT22;7086;48.116;11.580;2023-03-03T16:30:05;10.60;65.60
14022;DHT22;7086;48.116;11.580;2023-03-03T16:33:25;10.50;65.60
14022;DHT22;7086;48.116;11.580;2023-03-03T16:36:25;10.50;65.70
14022;DHT22;7086;48.116;11.580;2023-03-03T16:39:26;10.50;65.80
14022;DHT22;7086;48.116;11.580;2023-03-03T16:42:39;10.40;65.80
14022;DHT22;7086;48.116;11.580;2023-03-03T16:45:24;10.30;65.30
14022;DHT22;7086;48.116;11.580;2023-03-03T16:48:29;10.30;65.90
14022;DHT22;7086;48.116;11.580;2023-03-03T16:55:02;10.20;65.70
14022;DHT22;7086;48.116;11.580;2023-03-03T16:57:54;10.20;66.30
14022;DHT22;7086;48.116;11.580;2023-03-03T17:01:08;10.10;66.20
14022;DHT22;7086;48.116;11.580;2023-03-03T17:03:59;10.10;66.40
14022;DHT22;7086;48.116;11.580;2023-03-03T17:06:47;10.00;66.40
14022;DHT22;7086;48.116;11.580;2023-03-03T17:09:50;10.00;66.50
14022;DHT22;7086;48.116;11.580;2023-03-03T17:12:54;9.90;66.60
14022;DHT22;7086;48.116;11.580;2023-03-03T17:15:55;9.80;66.70
14022;DHT22;7086;48.116;11.580;2023-03-03T17:19:15;9.80;66.80
14022;DHT22;7086;48.116;11.580;2023-03-03T17:22:15;9.70;66.90
14022;DHT22;7086;48.116;11.580;2023-03-03T17:34:41;9.40;67.70
14022;DHT22;7086;48.116;11.580;2023-03-03T17:37:27;9.30;67.70
14022;DHT22;7086;48.116;11.580;2023-03-03T17:40:22;9.30;67.90
14022;DHT22;7086;48.116;11.580;2023-03-03T17:43:11;9.20;67.80
14022;DHT22;7086;48.116;11.580;2023-03-03T17:45:45;9.20;68.30
14022;DHT22;7086;48.116;11.580;2023-03-03T17:48:56;9.20;68.40
14022;DHT22;7086;48.116;11.580;2023-03-03T17:55:08;9.00;68.60
14022;DHT22;7086;48.116;11.580;2023-03-03T17:58:26;9.00;68.80
14022;DHT22;7086;48.116;11.580;2023-03-03T18:01:27;8.90;68.90
14022;DHT22;7086;48.116;11.580;2023-03-03T18:04:40;8.80;69.00
14022;DHT22;7086;48.116;11.580;2023-03-03T18:07:41;8.80;69.10
14022;DHT22;7086;48.116;11.580;2023-03-03T18:10:47;8.70;69.20
14022;DHT22;7086;48.116;11.580;2023-03-03T18:14:01;7.40;68.50
14022;DHT22;7086;48.116;11.580;2023-03-03T18:17:32;8.60;69.40
14022;DHT22;7086;48.116;11.580;2023-03-03T18:23:31;8.50;69.70
14022;DHT22;7086;48.116;11.580;2023-03-03T18:26:32;8.40;69.80
14022;DHT22;7086;48.116;11.580;2023-03-03T18:29:10;8.30;70.10
14022;DHT22;7086;48.116;11.580;2023-03-03T18:31:59;8.30;70.20
14022;DHT22;7086;48.116;11.580;2023-03-03T18:34:36;8.30;70.30
14022;DHT22;7086;48.116;11.580;2023-03-03T18:37:50;8.20;70.40
14022;DHT22;7086;48.116;11.580;2023-03-03T18:40:30;8.10;70.60
14022;DHT22;7086;48.116;11.580;2023-03-03T18:46:49;8.00;70.70
14022;DHT22;7086;48.116;11.580;2023-03-03T18:49:50;8.00;70.90
14022;DHT22;7086;48.116;11.580;2023-03-03T18:52:31;9.40;71.80
14022;DHT22;7086;48.116;11.580;2023-03-03T18:55:20;7.80;71.20
14022;DHT22;7086;48.116;11.580;2023-03-03T19:01:41;7.70;71.70
14022;DHT22;7086;48.116;11.580;2023-03-03T19:04:21;7.70;71.80
14022;DHT22;7086;48.116;11.580;2023-03-03T19:07:16;7.60;72.40
14022;DHT22;7086;48.116;11.580;2023-03-03T19:09:56;7.60;72.60
14022;DHT22;7086;48.116;11.580;2023-03-03T19:16:00;7.60;72.40
14022;DHT22;7086;48.116;11.580;2023-03-03T19:18:30;7.60;72.50
14022;DHT22;7086;48.116;11.580;2023-03-03T19:21:04;7.60;72.30
14022;DHT22;7086;48.116;11.580;2023-03-03T19:23:49;7.50;72.40
14022;DHT22;7086;48.116;11.580;2023-03-03T19:26:56;7.50;72.60
14022;DHT22;7086;48.116;11.580;2023-03-03T19:30:07;7.40;72.60
14022;DHT22;7086;48.116;11.580;2023-03-03T19:33:36;7.30;72.80
14022;DHT22;7086;48.116;11.580;2023-03-03T19:36:38;7.20;72.80
14022;DHT22;7086;48.116;11.580;2023-03-03T19:39:23;7.10;72.90
14022;DHT22;7086;48.116;11.580;2023-03-03T19:42:11;7.10;73.20
14022;DHT22;7086;48.116;11.580;2023-03-03T19:45:09;7.00;73.40
14022;DHT22;7086;48.116;11.580;2023-03-03T19:47:57;6.90;73.70
14022;DHT22;7086;48.116;11.580;2023-03-03T19:50:43;6.90;74.00
14022;DHT22;7086;48.116;11.580;2023-03-03T19:53:24;6.80;74.10
14022;DHT22;7086;48.116;11.580;2023-03-03T19:56:19;6.70;74.20
14022;DHT22;7086;48.116;11.580;2023-03-03T19:59:06;6.60;74.20
14022;DHT22;7086;48.116;11.580;2023-03-03T20:02:02;6.60;74.60
14022;DHT22;7086;48.116;11.580;2023-03-03T20:07:52;6.50;75.00
14022;DHT22;7086;48.116;11.580;2023-03-03T20:10:36;6.40;75.20
14022;DHT22;7086;48.116;11.580;2023-03-03T20:13:35;6.40;75.40
14022;DHT22;7086;48.116;11.580;2023-03-03T20:16:23;6.40;75.60
14022;DHT22;7086;48.116;11.580;2023-03-03T20:19:14;6.30;75.50
14022;DHT22;7086;48.116;11.580;2023-03-03T20:22:01;6.20;75.60
14022;DHT22;7086;48.116;11.580;2023-03-03T20:24:53;6.20;75.60
14022;DHT22;7086;48.116;11.580;2023-03-03T20:27:45;6.20;75.90
14022;DHT22;7086;48.116;11.580;2023-03-03T20:30:46;6.20;75.80
14022;DHT22;7086;48.116;11.580;2023-03-03T20:33:58;6.10;75.70
14022;DHT22;7086;48.116;11.580;2023-03-03T20:36:52;6.10;76.00
14022;DHT22;7086;48.116;11.580;2023-03-03T20:39:37;6.00;76.40
14022;DHT22;7086;48.116;11.580;2023-03-03T20:42:24;6.00;76.50
14022;DHT22;7086;48.116;11.580;2023-03-03T20:45:09;5.90;76.60
14022;DHT22;7086;48.116;11.580;2023-03-03T20:48:04;5.90;76.70
14022;DHT22;7086;48.116;11.580;2023-03-03T20:50:50;5.30;76.30
14022;DHT22;7086;48.116;11.580;2023-03-03T20:53:34;5.80;76.70
14022;DHT22;7086;48.116;11.580;2023-03-03T20:56:16;5.80;77.00
14022;DHT22;7086;48.116;11.580;2023-03-03T20:59:13;5.80;77.40
14022;DHT22;7086;48.116;11.580;2023-03-03T21:01:51;5.80;77.50
14022;DHT22;7086;48.116;11.580;2023-03-03T21:04:27;5.70;77.70
14022;DHT22;7086;48.116;11.580;2023-03-03T21:06:56;5.70;78.10
14022;DHT22;7086;48.116;11.580;2023-03-03T21:09:30;5.60;78.00
14022;DHT22;7086;48.116;11.580;2023-03-03T21:12:00;5.60;78.30
14022;DHT22;7086;48.116;11.580;2023-03-03T21:14:33;5.50;78.50
14022;DHT22;7086;48.116;11.580;2023-03-03T21:17:24;5.50;78.30
14022;DHT22;7086;48.116;11.580;2023-03-03T21:20:24;5.40;78.90
14022;DHT22;7086;48.116;11.580;2023-03-03T21:22:57;5.40;77.80
14022;DHT22;7086;48.116;11.580;2023-03-03T21:25:49;5.40;79.20
14022;DHT22;7086;48.116;11.580;2023-03-03T21:28:23;5.30;78.70
14022;DHT22;7086;48.116;11.580;2023-03-03T21:31:07;5.30;79.60
14022;DHT22;7086;48.116;11.580;2023-03-03T21:34:18;5.30;79.80
14022;DHT22;7086;48.116;11.580;2023-03-03T21:37:41;5.20;80.80
14022;DHT22;7086;48.116;11.580;2023-03-03T21:50:16;5.00;80.10
14022;DHT22;7086;48.116;11.580;2023-03-03T21:52:49;5.00;80.60
14022;DHT22;7086;48.116;11.580;2023-03-03T21:55:28;5.00;80.80
14022;DHT22;7086;48.116;11.580;2023-03-03T21:58:13;5.00;81.00
14022;DHT22;7086;48.116;11.580;2023-03-03T22:01:06;4.90;81.20
14022;DHT22;7086;48.116;11.580;2023-03-03T22:03:47;4.90;81.40
14022;DHT22;7086;48.116;11.580;2023-03-03T22:06:27;4.90;81.50
14022;DHT22;7086;48.116;11.580;2023-03-03T22:09:01;4.80;81.60
14022;DHT22;7086;48.116;11.580;2023-03-03T22:11:38;4.80;81.70
14022;DHT22;7086;48.116;11.580;2023-03-03T22:14:35;4.70;81.60
14022;DHT22;7086;48.116;11.580;2023-03-03T22:19:43;4.80;82.10
14022;DHT22;7086;48.116;11.580;2023-03-03T22:22:31;4.80;82.10
14022;DHT22;7086;48.116;11.580;2023-03-03T22:25:03;4.80;82.30
14022;DHT22;7086;48.116;11.580;2023-03-03T22:30:06;4.70;82.60
14022;DHT22;7086;48.116;11.580;2023-03-03T22:38:16;4.70;82.40
14022;DHT22;7086;48.116;11.580;2023-03-03T22:40:58;4.70;83.00
14022;DHT22;7086;48.116;11.580;2023-03-03T22:43:47;4.70;82.90
14022;DHT22;7086;48.116;11.580;2023-03-03T22:48:44;4.70;82.80
14022;DHT22;7086;48.116;11.580;2023-03-03T22:51:30;4.60;82.80
14022;DHT22;7086;48.116;11.580;2023-03-03T22:54:06;4.60;82.80
14022;DHT22;7086;48.116;11.580;2023-03-03T22:59:14;4.60;82.90
14022;DHT22;7086;48.116;11.580;2023-03-03T23:01:52;4.60;83.10
14022;DHT22;7086;48.116;11.580;2023-03-03T23:04:30;4.60;82.10
14022;DHT22;7086;48.116;11.580;2023-03-03T23:09:55;4.60;83.00
14022;DHT22;7086;48.116;11.580;2023-03-03T23:12:52;4.60;83.20
14022;DHT22;7086;48.116;11.580;2023-03-03T23:20:47;4.50;83.40
14022;DHT22;7086;48.116;11.580;2023-03-03T23:23:23;4.50;83.60
14022;DHT22;7086;48.116;11.580;2023-03-03T23:26:13;4.50;83.90
14022;DHT22;7086;48.116;11.580;2023-03-03T23:34:13;4.40;84.00
14022;DHT22;7086;48.116;11.580;2023-03-03T23:37:27;4.40;83.80
14022;DHT22;7086;48.116;11.580;2023-03-03T23:40:13;4.30;84.00
14022;DHT22;7086;48.116;11.580;2023-03-03T23:42:52;4.30;84.30
14022;DHT22;7086;48.116;11.580;2023-03-03T23:45:26;4.30;84.90
14022;DHT22;7086;48.116;11.580;2023-03-03T23:48:04;4.30;85.20
14022;DHT22;7086;48.116;11.580;2023-03-03T23:50:56;4.20;83.40
14022;DHT22;7086;48.116;11.580;2023-03-03T23:53:45;4.20;84.50
14022;DHT22;7086;48.116;11.580;2023-03-03T23:56:19;4.10;84.50
14022;DHT22;7086;48.116;11.580;2023-03-03T23:58:54;4.10;84.50
